sensor_id;sensor_type;location;lat;lon;timestamp;pressure;altitude;pressure_sealevel;temperature;humidity
30421;BME280;17218;54.070;10.012;2022-07-22T00:00:52;101449.31;;;19.17;100.00
30421;BME280;17218;54.070;10.012;2022-07-22T00:03:20;101462.44;;;19.17;100.00
30421;BME280;17218;54.070;10.012;2022-07-22T00:05:46;101458.25;;;19.10;100.00
30421;BME280;17218;54.070;10.012;2022-07-22T00:08:13;101455.00;;;19.03;100.00
30421;BME280;17218;54.070;10.012;2022-07-22T00:10:40;101463.81;;;19.00;100.00
30421;BME280;17218;54.070;10.012;2022-07-22T00:13:08;101464.75;;;18.98;100.00
30421;BME280;17218;54.070;10.012;2022-07-22T00:15:34;101473.72;;;18.90;100.00
30421;BME280;17218;54.070;10.012;2022-07-22T00:18:01;101456.78;;;18.72;100.00
30421;BME280;17218;54.070;10.012;2022-07-22T00:20:28;101469.50;;;18.56;100.00
30421;BME280;17218;54.070;10.012;2022-07-22T00:22:55;101472.56;;;18.40;100.00
30421;BME280;17218;54.070;10.012;2022-07-22T00:25:22;101468.28;;;18.38;100.00
30421;BME280;17218;54.070;10.012;2022-07-22T00:27:48;101482.06;;;18.44;100.00
30421;BME280;17218;54.070;10.012;2022-07-22T00:30:16;101472.34;;;18.48;100.00
30421;BME280;17218;54.070;10.012;2022-07-22T00:32:43;101467.25;;;18.43;100.00
30421;BME280;17218;54.070;10.012;2022-07-22T00:35:09;101474.25;;;18.43;100.00
30421;BME280;17218;54.070;10.012;2022-07-22T00:37:36;101467.72;;;18.26;100.00
30421;BME280;17218;54.070;10.012;2022-07-22T00:40:04;101479.13;;;18.23;100.00
30421;BME280;17218;54.070;10.012;2022-07-22T00:42:30;101478.25;;;18.24;100.00
30421;BME280;17218;54.070;10.012;2022-07-22T00:44:57;101487.16;;;18.19;100.00
30421;BME280;17218;54.070;10.012;2022-07-22T00:47:25;101488.22;;;18.10;100.00
30421;BME280;17218;54.070;10.012;2022-07-22T00:49:52;101480.00;;;17.91;100.00
30421;BME280;17218;54.070;10.012;2022-07-22T00:52:19;101494.13;;;17.85;100.00
30421;BME280;17218;54.070;10.012;2022-07-22T00:54:45;101498.47;;;17.86;100.00
30421;BME280;17218;54.070;10.012;2022-07-22T00:57:12;101492.41;;;17.84;100.00
30421;BME280;17218;54.070;10.012;2022-07-22T00:59:39;101502.94;;;17.82;100.00
30421;BME280;17218;54.070;10.012;2022-07-22T01:02:06;101504.81;;;17.75;100.00
30421;BME280;17218;54.070;10.012;2022-07-22T01:04:34;101502.28;;;17.72;100.00
30421;BME280;17218;54.070;10.012;2022-07-22T01:07:00;101495.63;;;17.60;100.00
30421;BME280;17218;54.070;10.012;2022-07-22T01:09:27;101500.16;;;17.52;100.00
30421;BME280;17218;54.070;10.012;2022-07-22T01:11:53;101503.63;;;17.54;100.00
30421;BME280;17218;54.070;10.012;2022-07-22T01:14:20;101506.31;;;17.51;100.00
30421;BME280;17218;54.070;10.012;2022-07-22T01:16:47;101499.34;;;17.50;100.00
30421;BME280;17218;54.070;10.012;2022-07-22T01:19:13;101502.19;;;17.40;100.00
30421;BME280;17218;54.070;10.012;2022-07-22T01:21:41;101506.81;;;17.31;100.00
30421;BME280;17218;54.070;10.012;2022-07-22T01:24:08;101506.06;;;17.24;100.00
30421;BME280;17218;54.070;10.012;2022-07-22T01:26:35;101505.22;;;17.22;100.00
30421;BME280;17218;54.070;10.012;2022-07-22T01:29:02;101507.06;;;17.20;100.00
30421;BME280;17218;54.070;10.012;2022-07-22T01:31:29;101516.50;;;17.25;100.00
30421;BME280;17218;54.070;10.012;2022-07-22T01:33:56;101514.66;;;17.29;100.00
30421;BME280;17218;54.070;10.012;2022-07-22T01:36:23;101514.63;;;17.32;100.00
30421;BME280;17218;54.070;10.012;2022-07-22T01:38:51;101514.66;;;17.31;100.00
30421;BME280;17218;54.070;10.012;2022-07-22T01:41:18;101509.59;;;17.23;100.00
30421;BME280;17218;54.070;10.012;2022-07-22T01:43:44;101503.75;;;17.10;100.00
30421;BME280;17218;54.070;10.012;2022-07-22T01:46:11;101515.09;;;17.09;100.00
30421;BME280;17218;54.070;10.012;2022-07-22T01:48:38;101516.06;;;17.04;100.00
30421;BME280;17218;54.070;10.012;2022-07-22T01:51:05;101522.13;;;17.07;100.00
30421;BME280;17218;54.070;10.012;2022-07-22T01:53:32;101511.75;;;17.02;100.00
30421;BME280;17218;54.070;10.012;2022-07-22T01:56:00;101514.53;;;16.94;100.00
30421;BME280;17218;54.070;10.012;2022-07-22T01:58:26;101513.03;;;16.84;100.00
30421;BME280;17218;54.070;10.012;2022-07-22T02:00:53;101519.97;;;16.85;100.00
30421;BME280;17218;54.070;10.012;2022-07-22T02:03:19;101524.56;;;16.75;100.00
30421;BME280;17218;54.070;10.012;2022-07-22T02:05:46;101514.03;;;16.76;100.00
30421;BME280;17218;54.070;10.012;2022-07-22T02:08:13;101520.94;;;16.80;100.00
30421;BME280;17218;54.070;10.012;2022-07-22T02:10:40;101526.81;;;16.90;100.00
30421;BME280;17218;54.070;10.012;2022-07-22T02:13:11;101525.00;;;16.94;100.00
30421;BME280;17218;54.070;10.012;2022-07-22T02:15:37;101512.75;;;16.96;100.00
30421;BME280;17218;54.070;10.012;2022-07-22T02:18:10;101517.19;;;16.92;100.00
30421;BME280;17218;54.070;10.012;2022-07-22T02:20:37;101512.81;;;16.93;100.00
30421;BME280;17218;54.070;10.012;2022-07-22T02:23:04;101518.19;;;16.87;100.00
30421;BME280;17218;54.070;10.012;2022-07-22T02:25:30;101521.94;;;16.75;100.00
30421;BME280;17218;54.070;10.012;2022-07-22T02:27:57;101517.63;;;16.72;100.00
30421;BME280;17218;54.070;10.012;2022-07-22T02:30:25;101514.28;;;16.65;100.00
30421;BME280;17218;54.070;10.012;2022-07-22T02:32:52;101522.03;;;16.68;100.00
30421;BME280;17218;54.070;10.012;2022-07-22T02:35:18;101515.94;;;16.69;100.00
30421;BME280;17218;54.070;10.012;2022-07-22T02:37:45;101514.09;;;16.75;100.00
30421;BME280;17218;54.070;10.012;2022-07-22T02:40:12;101519.31;;;16.75;100.00
30421;BME280;17218;54.070;10.012;2022-07-22T02:42:38;101520.22;;;16.72;100.00
30421;BME280;17218;54.070;10.012;2022-07-22T02:45:06;101516.78;;;16.72;100.00
30421;BME280;17218;54.070;10.012;2022-07-22T02:47:35;101521.84;;;16.78;100.00
30421;BME280;17218;54.070;10.012;2022-07-22T02:50:02;101529.59;;;16.84;100.00
30421;BME280;17218;54.070;10.012;2022-07-22T02:52:28;101520.13;;;16.78;100.00
30421;BME280;17218;54.070;10.012;2022-07-22T02:54:55;101522.69;;;16.80;100.00
30421;BME280;17218;54.070;10.012;2022-07-22T02:57:22;101522.81;;;16.75;100.00
30421;BME280;17218;54.070;10.012;2022-07-22T02:59:49;101522.00;;;16.72;100.00
30421;BME280;17218;54.070;10.012;2022-07-22T03:02:15;101520.41;;;16.63;100.00
30421;BME280;17218;54.070;10.012;2022-07-22T03:04:44;101524.19;;;16.49;100.00
30421;BME280;17218;54.070;10.012;2022-07-22T03:07:10;101525.25;;;16.39;100.00
30421;BME280;17218;54.070;10.012;2022-07-22T03:09:37;101523.69;;;16.28;100.00
30421;BME280;17218;54.070;10.012;2022-07-22T03:12:04;101528.25;;;16.17;100.00
30421;BME280;17218;54.070;10.012;2022-07-22T03:14:30;101524.91;;;16.10;100.00
30421;BME280;17218;54.070;10.012;2022-07-22T03:16:57;101541.56;;;16.04;100.00
30421;BME280;17218;54.070;10.012;2022-07-22T03:19:23;101538.97;;;16.03;100.00
30421;BME280;17218;54.070;10.012;2022-07-22T03:21:51;101539.09;;;15.93;100.00
30421;BME280;17218;54.070;10.012;2022-07-22T03:24:18;101550.38;;;15.95;100.00
30421;BME280;17218;54.070;10.012;2022-07-22T03:26:44;101554.97;;;15.82;100.00
30421;BME280;17218;54.070;10.012;2022-07-22T03:29:11;101554.06;;;15.83;100.00
30421;BME280;17218;54.070;10.012;2022-07-22T03:31:37;101563.50;;;15.94;100.00
30421;BME280;17218;54.070;10.012;2022-07-22T03:34:04;101552.09;;;15.96;100.00
30421;BME280;17218;54.070;10.012;2022-07-22T03:36:30;101554.56;;;16.07;100.00
30421;BME280;17218;54.070;10.012;2022-07-22T03:38:58;101555.63;;;15.95;100.00
30421;BME280;17218;54.070;10.012;2022-07-22T03:41:25;101552.16;;;15.93;100.00
30421;BME280;17218;54.070;10.012;2022-07-22T03:43:52;101559.94;;;15.96;100.00
30421;BME280;17218;54.070;10.012;2022-07-22T03:46:18;101550.34;;;16.00;100.00
30421;BME280;17218;54.070;10.012;2022-07-22T03:48:45;101560.78;;;15.98;100.00
30421;BME280;17218;54.070;10.012;2022-07-22T03:51:11;101560.72;;;16.05;100.00
30421;BME280;17218;54.070;10.012;2022-07-22T03:53:38;101566.66;;;16.13;100.00
30421;BME280;17218;54.070;10.012;2022-07-22T03:56:06;101562.16;;;16.23;100.00
30421;BME280;17218;54.070;10.012;2022-07-22T03:58:33;101559.47;;;16.26;100.00
30421;BME280;17218;54.070;10.012;2022-07-22T04:01:00;101559.66;;;16.15;100.00
30421;BME280;17218;54.070;10.012;2022-07-22T04:03:26;101562.31;;;16.14;100.00
30421;BME280;17218;54.070;10.012;2022-07-22T04:05:53;101563.03;;;16.20;100.00
30421;BME280;17218;54.070;10.012;2022-07-22T04:08:19;101556.81;;;16.28;100.00
30421;BME280;17218;54.070;10.012;2022-07-22T04:10:46;101555.78;;;16.37;100.00
30421;BME280;17218;54.070;10.012;2022-07-22T04:13:14;101563.44;;;16.46;100.00
30421;BME280;17218;54.070;10.012;2022-07-22T04:15:40;101560.81;;;16.49;100.00
30421;BME280;17218;54.070;10.012;2022-07-22T04:18:07;101557.31;;;16.49;100.00
30421;BME280;17218;54.070;10.012;2022-07-22T04:20:33;101561.47;;;16.59;100.00
30421;BME280;17218;54.070;10.012;2022-07-22T04:23:00;101557.22;;;16.55;100.00
30421;BME280;17218;54.070;10.012;2022-07-22T04:25:26;101559.78;;;16.56;100.00
30421;BME280;17218;54.070;10.012;2022-07-22T04:27:53;101557.25;;;16.52;100.00
30421;BME280;17218;54.070;10.012;2022-07-22T04:30:22;101559.06;;;16.48;100.00
30421;BME280;17218;54.070;10.012;2022-07-22T04:32:49;101557.91;;;16.63;100.00
30421;BME280;17218;54.070;10.012;2022-07-22T04:35:16;101550.84;;;16.67;100.00
30421;BME280;17218;54.070;10.012;2022-07-22T04:37:42;101552.50;;;16.73;100.00
30421;BME280;17218;54.070;10.012;2022-07-22T04:40:10;101551.69;;;16.69;100.00
30421;BME280;17218;54.070;10.012;2022-07-22T04:42:37;101562.84;;;16.77;100.00
30421;BME280;17218;54.070;10.012;2022-07-22T04:45:04;101561.81;;;16.86;100.00
30421;BME280;17218;54.070;10.012;2022-07-22T04:47:32;101559.03;;;16.94;100.00
30421;BME280;17218;54.070;10.012;2022-07-22T04:49:59;101548.44;;;17.00;100.00
30421;BME280;17218;54.070;10.012;2022-07-22T04:52:25;101552.72;;;17.04;100.00
30421;BME280;17218;54.070;10.012;2022-07-22T04:54:52;101545.25;;;16.86;100.00
30421;BME280;17218;54.070;10.012;2022-07-22T04:57:19;101555.06;;;16.74;100.00
30421;BME280;17218;54.070;10.012;2022-07-22T04:59:45;101552.31;;;16.82;100.00
30421;BME280;17218;54.070;10.012;2022-07-22T05:02:12;101554.00;;;16.83;100.00
30421;BME280;17218;54.070;10.012;2022-07-22T05:04:40;101555.09;;;16.73;100.00
30421;BME280;17218;54.070;10.012;2022-07-22T05:07:06;101558.78;;;16.64;100.00
30421;BME280;17218;54.070;10.012;2022-07-22T05:09:33;101567.59;;;16.58;100.00
30421;BME280;17218;54.070;10.012;2022-07-22T05:11:59;101556.00;;;16.72;100.00
30421;BME280;17218;54.070;10.012;2022-07-22T05:14:26;101561.72;;;16.91;100.00
30421;BME280;17218;54.070;10.012;2022-07-22T05:16:53;101555.34;;;17.04;100.00
30421;BME280;17218;54.070;10.012;2022-07-22T05:19:19;101545.81;;;17.00;100.00
30421;BME280;17218;54.070;10.012;2022-07-22T05:21:47;101550.06;;;17.06;100.00
30421;BME280;17218;54.070;10.012;2022-07-22T05:24:14;101554.28;;;17.13;100.00
30421;BME280;17218;54.070;10.012;2022-07-22T05:26:41;101542.84;;;17.19;100.00
30421;BME280;17218;54.070;10.012;2022-07-22T05:29:07;101553.19;;;17.24;100.00
30421;BME280;17218;54.070;10.012;2022-07-22T05:31:34;101542.91;;;17.14;100.00
30421;BME280;17218;54.070;10.012;2022-07-22T05:34:00;101551.59;;;17.16;100.00
30421;BME280;17218;54.070;10.012;2022-07-22T05:36:28;101543.78;;;17.15;100.00
30421;BME280;17218;54.070;10.012;2022-07-22T05:38:56;101542.88;;;17.17;100.00
30421;BME280;17218;54.070;10.012;2022-07-22T05:41:22;101538.56;;;17.15;100.00
30421;BME280;17218;54.070;10.012;2022-07-22T05:43:49;101541.97;;;17.19;100.00
30421;BME280;17218;54.070;10.012;2022-07-22T05:46:15;101544.66;;;17.15;100.00
30421;BME280;17218;54.070;10.012;2022-07-22T05:48:42;101542.78;;;17.21;100.00
30421;BME280;17218;54.070;10.012;2022-07-22T05:51:12;101546.16;;;17.26;100.00
30421;BME280;17218;54.070;10.012;2022-07-22T05:53:38;101542.75;;;17.22;100.00
30421;BME280;17218;54.070;10.012;2022-07-22T05:56:08;101542.47;;;17.35;100.00
30421;BME280;17218;54.070;10.012;2022-07-22T05:58:36;101550.06;;;17.46;100.00
30421;BME280;17218;54.070;10.012;2022-07-22T06:01:03;101547.41;;;17.49;100.00
30421;BME280;17218;54.070;10.012;2022-07-22T06:03:30;101552.69;;;17.47;100.00
30421;BME280;17218;54.070;10.012;2022-07-22T06:05:56;101550.81;;;17.52;100.00
30421;BME280;17218;54.070;10.012;2022-07-22T06:08:23;101553.38;;;17.54;100.00
30421;BME280;17218;54.070;10.012;2022-07-22T06:10:50;101545.69;;;17.46;100.00
30421;BME280;17218;54.070;10.012;2022-07-22T06:13:18;101552.19;;;17.29;100.00
30421;BME280;17218;54.070;10.012;2022-07-22T06:15:44;101552.97;;;17.33;100.00
30421;BME280;17218;54.070;10.012;2022-07-22T06:18:11;101553.88;;;17.32;100.00
30421;BME280;17218;54.070;10.012;2022-07-22T06:20:38;101541.53;;;17.37;100.00
30421;BME280;17218;54.070;10.012;2022-07-22T06:23:05;101551.78;;;17.48;100.00
30421;BME280;17218;54.070;10.012;2022-07-22T06:25:31;101561.13;;;17.60;100.00
30421;BME280;17218;54.070;10.012;2022-07-22T06:27:58;101561.91;;;17.64;100.00
30421;BME280;17218;54.070;10.012;2022-07-22T06:30:26;101552.47;;;17.55;100.00
30421;BME280;17218;54.070;10.012;2022-07-22T06:32:53;101556.53;;;17.69;100.00
30421;BME280;17218;54.070;10.012;2022-07-22T06:35:20;101560.53;;;17.84;100.00
30421;BME280;17218;54.070;10.012;2022-07-22T06:37:46;101550.66;;;17.95;100.00
30421;BME280;17218;54.070;10.012;2022-07-22T06:40:13;101543.56;;;17.62;100.00
30421;BME280;17218;54.070;10.012;2022-07-22T06:42:40;101550.56;;;17.63;100.00
30421;BME280;17218;54.070;10.012;2022-07-22T06:45:07;101544.34;;;17.68;100.00
30421;BME280;17218;54.070;10.012;2022-07-22T06:47:35;101538.75;;;17.82;100.00
30421;BME280;17218;54.070;10.012;2022-07-22T06:50:02;101534.88;;;17.97;100.00
30421;BME280;17218;54.070;10.012;2022-07-22T06:52:29;101537.25;;;18.06;100.00
30421;BME280;17218;54.070;10.012;2022-07-22T06:54:56;101536.09;;;18.18;100.00
30421;BME280;17218;54.070;10.012;2022-07-22T06:57:22;101532.34;;;18.29;100.00
30421;BME280;17218;54.070;10.012;2022-07-22T06:59:49;101539.78;;;18.44;100.00
30421;BME280;17218;54.070;10.012;2022-07-22T07:02:16;101540.19;;;18.60;100.00
30421;BME280;17218;54.070;10.012;2022-07-22T07:04:44;101529.06;;;18.52;100.00
30421;BME280;17218;54.070;10.012;2022-07-22T07:07:11;101535.34;;;18.46;100.00
30421;BME280;17218;54.070;10.012;2022-07-22T07:09:37;101532.59;;;18.51;100.00
30421;BME280;17218;54.070;10.012;2022-07-22T07:12:04;101534.69;;;18.38;100.00
30421;BME280;17218;54.070;10.012;2022-07-22T07:14:31;101540.28;;;18.26;100.00
30421;BME280;17218;54.070;10.012;2022-07-22T07:16:58;101549.75;;;18.31;100.00
30421;BME280;17218;54.070;10.012;2022-07-22T07:19:24;101547.03;;;18.34;100.00
30421;BME280;17218;54.070;10.012;2022-07-22T07:21:52;101551.44;;;18.34;100.00
30421;BME280;17218;54.070;10.012;2022-07-22T07:24:19;101545.28;;;18.35;100.00
30421;BME280;17218;54.070;10.012;2022-07-22T07:26:46;101546.00;;;18.05;100.00
30421;BME280;17218;54.070;10.012;2022-07-22T07:29:12;101550.28;;;18.09;100.00
30421;BME280;17218;54.070;10.012;2022-07-22T07:31:39;101549.97;;;18.22;100.00
30421;BME280;17218;54.070;10.012;2022-07-22T07:34:05;101548.72;;;18.37;100.00
30421;BME280;17218;54.070;10.012;2022-07-22T07:36:32;101555.13;;;18.58;100.00
30421;BME280;17218;54.070;10.012;2022-07-22T07:39:00;101544.03;;;18.80;100.00
30421;BME280;17218;54.070;10.012;2022-07-22T07:41:26;101542.03;;;18.89;100.00
30421;BME280;17218;54.070;10.012;2022-07-22T07:43:53;101544.75;;;18.86;100.00
30421;BME280;17218;54.070;10.012;2022-07-22T07:46:20;101542.22;;;18.82;100.00
30421;BME280;17218;54.070;10.012;2022-07-22T07:48:46;101548.84;;;18.94;100.00
30421;BME280;17218;54.070;10.012;2022-07-22T07:51:13;101555.22;;;19.17;100.00
30421;BME280;17218;54.070;10.012;2022-07-22T07:53:40;101547.72;;;19.03;100.00
30421;BME280;17218;54.070;10.012;2022-07-22T07:56:08;101547.34;;;19.16;100.00
30421;BME280;17218;54.070;10.012;2022-07-22T07:58:35;101559.41;;;19.23;100.00
30421;BME280;17218;54.070;10.012;2022-07-22T08:01:01;101554.13;;;19.25;100.00
30421;BME280;17218;54.070;10.012;2022-07-22T08:03:28;101558.16;;;19.05;100.00
30421;BME280;17218;54.070;10.012;2022-07-22T08:05:55;101558.25;;;19.02;100.00
30421;BME280;17218;54.070;10.012;2022-07-22T08:08:23;101557.59;;;18.95;100.00
30421;BME280;17218;54.070;10.012;2022-07-22T08:10:49;101560.88;;;19.02;100.00
30421;BME280;17218;54.070;10.012;2022-07-22T08:13:17;101558.84;;;19.12;100.00
30421;BME280;17218;54.070;10.012;2022-07-22T08:15:44;101568.34;;;19.17;100.00
30421;BME280;17218;54.070;10.012;2022-07-22T08:18:10;101562.81;;;19.27;100.00
30421;BME280;17218;54.070;10.012;2022-07-22T08:20:37;101563.03;;;19.19;100.00
30421;BME280;17218;54.070;10.012;2022-07-22T08:23:03;101560.00;;;19.03;100.00
30421;BME280;17218;54.070;10.012;2022-07-22T08:25:30;101570.25;;;19.11;100.00
30421;BME280;17218;54.070;10.012;2022-07-22T08:27:57;101576.28;;;19.14;100.00
30421;BME280;17218;54.070;10.012;2022-07-22T08:30:25;101569.91;;;18.93;100.00
30421;BME280;17218;54.070;10.012;2022-07-22T08:32:54;101578.41;;;19.01;100.00
30421;BME280;17218;54.070;10.012;2022-07-22T08:35:20;101583.44;;;19.09;100.00
30421;BME280;17218;54.070;10.012;2022-07-22T08:37:47;101578.03;;;19.15;100.00
30421;BME280;17218;54.070;10.012;2022-07-22T08:40:16;101581.22;;;19.25;100.00
30421;BME280;17218;54.070;10.012;2022-07-22T08:42:45;101582.56;;;19.39;100.00
30421;BME280;17218;54.070;10.012;2022-07-22T08:45:12;101582.25;;;19.21;100.00
30421;BME280;17218;54.070;10.012;2022-07-22T08:47:43;101590.28;;;19.15;100.00
30421;BME280;17218;54.070;10.012;2022-07-22T08:50:10;101588.16;;;19.28;100.00
30421;BME280;17218;54.070;10.012;2022-07-22T08:52:37;101591.72;;;19.25;100.00
30421;BME280;17218;54.070;10.012;2022-07-22T08:57:47;101594.41;;;18.92;100.00
30421;BME280;17218;54.070;10.012;2022-07-22T09:00:16;101600.00;;;19.11;100.00
30421;BME280;17218;54.070;10.012;2022-07-22T09:02:45;101582.72;;;19.34;100.00
30421;BME280;17218;54.070;10.012;2022-07-22T09:05:13;101596.97;;;19.25;100.00
30421;BME280;17218;54.070;10.012;2022-07-22T09:07:41;101590.03;;;19.24;100.00
30421;BME280;17218;54.070;10.012;2022-07-22T09:10:10;101588.00;;;19.02;100.00
30421;BME280;17218;54.070;10.012;2022-07-22T09:12:50;101603.31;;;19.18;100.00
30421;BME280;17218;54.070;10.012;2022-07-22T09:15:25;101597.25;;;19.17;100.00
30421;BME280;17218;54.070;10.012;2022-07-22T09:17:53;101597.78;;;19.27;100.00
30421;BME280;17218;54.070;10.012;2022-07-22T09:20:20;101597.94;;;19.51;100.00
30421;BME280;17218;54.070;10.012;2022-07-22T09:22:48;101596.41;;;19.73;100.00
30421;BME280;17218;54.070;10.012;2022-07-22T09:25:26;101608.28;;;19.85;100.00
30421;BME280;17218;54.070;10.012;2022-07-22T09:27:56;101599.09;;;19.98;100.00
30421;BME280;17218;54.070;10.012;2022-07-22T09:30:36;101609.44;;;20.03;100.00
30421;BME280;17218;54.070;10.012;2022-07-22T09:33:05;101598.16;;;19.99;100.00
30421;BME280;17218;54.070;10.012;2022-07-22T09:35:32;101598.16;;;19.72;100.00
30421;BME280;17218;54.070;10.012;2022-07-22T09:38:00;101601.91;;;19.65;100.00
30421;BME280;17218;54.070;10.012;2022-07-22T09:40:28;101603.25;;;19.77;100.00
30421;BME280;17218;54.070;10.012;2022-07-22T09:42:57;101598.44;;;19.92;100.00
30421;BME280;17218;54.070;10.012;2022-07-22T09:45:27;101605.84;;;20.07;100.00
30421;BME280;17218;54.070;10.012;2022-07-22T09:47:55;101612.88;;;20.05;100.00
30421;BME280;17218;54.070;10.012;2022-07-22T09:50:25;101601.31;;;19.84;100.00
30421;BME280;17218;54.070;10.012;2022-07-22T09:52:55;101608.63;;;19.74;100.00
30421;BME280;17218;54.070;10.012;2022-07-22T09:55:24;101618.78;;;19.58;100.00
30421;BME280;17218;54.070;10.012;2022-07-22T09:57:52;101625.25;;;19.46;100.00
30421;BME280;17218;54.070;10.012;2022-07-22T10:00:21;101624.91;;;19.58;100.00
30421;BME280;17218;54.070;10.012;2022-07-22T10:02:50;101622.41;;;19.82;100.00
30421;BME280;17218;54.070;10.012;2022-07-22T10:05:19;101620.88;;;20.02;100.00
30421;BME280;17218;54.070;10.012;2022-07-22T10:07:48;101621.47;;;20.12;100.00
30421;BME280;17218;54.070;10.012;2022-07-22T10:10:16;101622.41;;;19.82;100.00
30421;BME280;17218;54.070;10.012;2022-07-22T10:12:44;101627.56;;;19.57;100.00
30421;BME280;17218;54.070;10.012;2022-07-22T10:15:12;101629.47;;;19.51;100.00
30421;BME280;17218;54.070;10.012;2022-07-22T10:17:41;101614.06;;;19.69;100.00
30421;BME280;17218;54.070;10.012;2022-07-22T10:20:10;101625.56;;;19.92;100.00
30421;BME280;17218;54.070;10.012;2022-07-22T10:22:53;101620.88;;;20.29;100.00
30421;BME280;17218;54.070;10.012;2022-07-22T10:25:21;101625.44;;;20.24;100.00
30421;BME280;17218;54.070;10.012;2022-07-22T10:27:51;101622.00;;;19.95;100.00
30421;BME280;17218;54.070;10.012;2022-07-22T10:30:19;101616.94;;;19.88;100.00
30421;BME280;17218;54.070;10.012;2022-07-22T10:33:01;101620.06;;;20.00;100.00
30421;BME280;17218;54.070;10.012;2022-07-22T10:35:28;101624.88;;;20.14;100.00
30421;BME280;17218;54.070;10.012;2022-07-22T10:38:00;101619.81;;;20.35;100.00
30421;BME280;17218;54.070;10.012;2022-07-22T10:40:28;101622.94;;;20.46;100.00
30421;BME280;17218;54.070;10.012;2022-07-22T10:43:04;101619.28;;;20.50;100.00
30421;BME280;17218;54.070;10.012;2022-07-22T10:45:33;101622.72;;;20.53;100.00
30421;BME280;17218;54.070;10.012;2022-07-22T10:48:01;101621.28;;;20.68;100.00
30421;BME280;17218;54.070;10.012;2022-07-22T10:50:48;101615.47;;;20.83;100.00
30421;BME280;17218;54.070;10.012;2022-07-22T10:53:19;101618.28;;;21.03;100.00
30421;BME280;17218;54.070;10.012;2022-07-22T10:56:01;101613.38;;;21.17;100.00
30421;BME280;17218;54.070;10.012;2022-07-22T10:58:55;101616.03;;;21.17;100.00
30421;BME280;17218;54.070;10.012;2022-07-22T11:01:25;101621.91;;;21.00;100.00
30421;BME280;17218;54.070;10.012;2022-07-22T11:03:52;101623.69;;;21.00;100.00
30421;BME280;17218;54.070;10.012;2022-07-22T11:06:22;101621.38;;;21.14;100.00
30421;BME280;17218;54.070;10.012;2022-07-22T11:08:52;101630.19;;;20.89;100.00
30421;BME280;17218;54.070;10.012;2022-07-22T11:11:35;101625.34;;;20.53;100.00
30421;BME280;17218;54.070;10.012;2022-07-22T11:14:03;101630.53;;;20.29;100.00
30421;BME280;17218;54.070;10.012;2022-07-22T11:16:30;101632.25;;;20.30;100.00
30421;BME280;17218;54.070;10.012;2022-07-22T11:18:58;101621.41;;;20.65;100.00
30421;BME280;17218;54.070;10.012;2022-07-22T11:21:26;101615.13;;;20.93;100.00
30421;BME280;17218;54.070;10.012;2022-07-22T11:23:56;101618.59;;;21.19;100.00
30421;BME280;17218;54.070;10.012;2022-07-22T11:26:26;101619.81;;;20.84;100.00
30421;BME280;17218;54.070;10.012;2022-07-22T11:28:58;101617.63;;;20.72;100.00
30421;BME280;17218;54.070;10.012;2022-07-22T11:31:25;101630.75;;;20.73;100.00
30421;BME280;17218;54.070;10.012;2022-07-22T11:33:52;101619.63;;;20.65;100.00
30421;BME280;17218;54.070;10.012;2022-07-22T11:36:31;101618.97;;;20.84;100.00
30421;BME280;17218;54.070;10.012;2022-07-22T11:38:59;101615.19;;;20.91;95.79
30421;BME280;17218;54.070;10.012;2022-07-22T11:41:28;101611.03;;;21.09;100.00
30421;BME280;17218;54.070;10.012;2022-07-22T11:43:55;101606.97;;;21.25;100.00
30421;BME280;17218;54.070;10.012;2022-07-22T11:46:22;101607.22;;;21.63;95.90
30421;BME280;17218;54.070;10.012;2022-07-22T11:48:51;101606.03;;;21.71;91.75
30421;BME280;17218;54.070;10.012;2022-07-22T11:51:18;101616.69;;;21.90;94.53
30421;BME280;17218;54.070;10.012;2022-07-22T11:53:45;101618.38;;;21.92;100.00
30421;BME280;17218;54.070;10.012;2022-07-22T11:56:13;101618.97;;;21.99;95.92
30421;BME280;17218;54.070;10.012;2022-07-22T11:58:42;101619.22;;;22.14;92.06
30421;BME280;17218;54.070;10.012;2022-07-22T12:01:11;101620.59;;;21.81;85.84
30421;BME280;17218;54.070;10.012;2022-07-22T12:03:40;101621.59;;;21.77;82.91
30421;BME280;17218;54.070;10.012;2022-07-22T12:06:09;101619.16;;;21.95;90.78
30421;BME280;17218;54.070;10.012;2022-07-22T12:08:40;101617.25;;;21.98;84.98
30421;BME280;17218;54.070;10.012;2022-07-22T12:11:09;101619.78;;;22.22;89.00
30421;BME280;17218;54.070;10.012;2022-07-22T12:13:40;101617.78;;;22.27;78.85
30421;BME280;17218;54.070;10.012;2022-07-22T12:16:19;101626.91;;;22.41;87.07
30421;BME280;17218;54.070;10.012;2022-07-22T12:18:51;101629.13;;;22.30;80.93
30421;BME280;17218;54.070;10.012;2022-07-22T12:21:18;101629.69;;;21.50;85.73
30421;BME280;17218;54.070;10.012;2022-07-22T12:23:49;101630.00;;;21.42;95.94
30421;BME280;17218;54.070;10.012;2022-07-22T12:26:16;101620.97;;;21.25;95.01
30421;BME280;17218;54.070;10.012;2022-07-22T12:28:44;101621.28;;;21.17;100.00
30421;BME280;17218;54.070;10.012;2022-07-22T12:31:11;101611.91;;;21.32;100.00
30421;BME280;17218;54.070;10.012;2022-07-22T12:33:46;101611.41;;;21.67;100.00
30421;BME280;17218;54.070;10.012;2022-07-22T12:36:13;101613.41;;;21.85;100.00